Time;durP1;ratioP1;P1;durP2;ratioP2;P2;SDS_P1;SDS_P2;PMS_P1;PMS_P2;Temp;Humidity;BMP_temperature;BMP_pressure;BME280_temperature;BME280_humidity;BME280_pressure;Samples;Min_cycle;Max_cycle;Signal;HPM_P1;HPM_P2
2022/12/13 00:00:17;;;;;;;12.13;5.57;;;;;;;;;;5020995;28;20041;-67
2022/12/13 00:02:46;;;;;;;19.13;6.40;;;;;;;;;;5020205;28;20049;-68
2022/12/13 00:05:13;;;;;;;10.15;5.82;;;;;;;;;;5021756;28;20123;-67
2022/12/13 00:07:40;;;;;;;17.67;8.73;;;;;;;;;;5021189;28;20042;-67
2022/12/13 00:10:07;;;;;;;20.80;7.90;;;;;;;;;;5052836;28;20148;-66
2022/12/13 00:12:33;;;;;;;16.83;7.80;;;;;;;;;;5019525;28;20116;-68
2022/12/13 00:15:00;;;;;;;21.40;7.32;;;;;;;;;;5022125;28;20170;-68
2022/12/13 00:17:27;;;;;;;14.48;6.50;;;;;;;;;;5020890;28;20825;-67
2022/12/13 00:19:53;;;;;;;20.70;7.65;;;;;;;;;;5021340;28;20056;-68
2022/12/13 00:22:20;;;;;;;14.43;8.25;;;;;;;;;;5021914;28;20068;-68
2022/12/13 00:24:47;;;;;;;19.10;7.05;;;;;;;;;;5024341;28;20111;-67
2022/12/13 00:27:13;;;;;;;11.77;6.22;;;;;;;;;;5022037;28;20050;-68
2022/12/13 00:29:40;;;;;;;8.48;5.18;;;;;;;;;;5021762;28;20056;-68
2022/12/13 00:32:07;;;;;;;11.85;6.50;;;;;;;;;;5024838;28;20052;-67
2022/12/13 00:34:33;;;;;;;8.85;5.43;;;;;;;;;;5025643;28;20045;-67
2022/12/13 00:37:00;;;;;;;17.25;6.90;;;;;;;;;;5018861;28;20144;-67
2022/12/13 00:39:27;;;;;;;11.43;6.28;;;;;;;;;;5043614;28;20041;-67
2022/12/13 00:41:53;;;;;;;13.32;6.68;;;;;;;;;;5019241;28;20627;-67
2022/12/13 00:44:20;;;;;;;13.45;6.88;;;;;;;;;;5018017;28;20241;-67
2022/12/13 00:46:47;;;;;;;28.85;6.85;;;;;;;;;;5019376;28;20049;-67
2022/12/13 00:49:35;;;;;;;24.90;6.57;;;;;;;;;;5048303;28;20709;-68
2022/12/13 00:52:01;;;;;;;11.45;6.43;;;;;;;;;;5049241;28;20036;-66
2022/12/13 00:54:28;;;;;;;21.23;6.57;;;;;;;;;;5050672;28;20025;-68
2022/12/13 00:56:55;;;;;;;11.98;5.85;;;;;;;;;;5034371;28;20045;-68
2022/12/13 00:59:21;;;;;;;13.52;6.95;;;;;;;;;;5052213;28;20082;-66
2022/12/13 01:01:49;;;;;;;11.02;6.25;;;;;;;;;;5049871;28;20974;-68
2022/12/13 01:04:16;;;;;;;28.65;8.57;;;;;;;;;;5047438;28;20102;-66
2022/12/13 01:06:45;;;;;;;15.13;7.32;;;;;;;;;;5047917;28;20427;-68
2022/12/13 01:09:16;;;;;;;25.60;8.35;;;;;;;;;;5049906;28;20044;-69
2022/12/13 01:11:43;;;;;;;22.67;6.47;;;;;;;;;;5049466;28;20040;-68
2022/12/13 01:14:11;;;;;;;14.98;6.70;;;;;;;;;;5033028;28;20862;-67
2022/12/13 01:16:38;;;;;;;9.07;6.35;;;;;;;;;;5028167;28;20077;-67
2022/12/13 01:19:05;;;;;;;13.27;6.78;;;;;;;;;;5019744;28;20037;-68
2022/12/13 01:21:32;;;;;;;17.00;8.02;;;;;;;;;;5014157;28;20046;-67
2022/12/13 01:24:02;;;;;;;33.00;7.93;;;;;;;;;;5031142;28;20056;-67
2022/12/13 01:26:29;;;;;;;34.88;7.38;;;;;;;;;;4938456;28;2316938;-66
2022/12/13 01:28:56;;;;;;;19.92;7.80;;;;;;;;;;4991955;28;20044;-67
2022/12/13 01:31:23;;;;;;;9.00;6.28;;;;;;;;;;4989518;28;20120;-67
2022/12/13 01:33:50;;;;;;;10.23;6.25;;;;;;;;;;4988507;28;20678;-67
2022/12/13 01:36:18;;;;;;;12.68;6.82;;;;;;;;;;4991043;28;20134;-68
2022/12/13 01:38:45;;;;;;;22.88;7.03;;;;;;;;;;5014928;28;20037;-67
2022/12/13 01:41:16;;;;;;;16.60;7.50;;;;;;;;;;5015586;28;20037;-68
2022/12/13 01:43:42;;;;;;;15.05;6.32;;;;;;;;;;5014900;28;20041;-67
2022/12/13 01:46:10;;;;;;;11.68;6.50;;;;;;;;;;5015984;28;20129;-67
2022/12/13 01:48:40;;;;;;;8.63;6.10;;;;;;;;;;5016835;28;20394;-67
2022/12/13 01:51:09;;;;;;;14.60;7.35;;;;;;;;;;5016244;28;20096;-68
2022/12/13 01:53:36;;;;;;;13.63;6.60;;;;;;;;;;5010837;28;20044;-68
2022/12/13 01:56:16;;;;;;;25.95;7.13;;;;;;;;;;5015511;28;20499;-66
2022/12/13 01:58:42;;;;;;;10.00;6.15;;;;;;;;;;5014881;28;20037;-66
2022/12/13 02:01:09;;;;;;;14.00;7.80;;;;;;;;;;5016201;28;20061;-66
2022/12/13 02:03:36;;;;;;;10.05;6.53;;;;;;;;;;5016201;28;20041;-67
2022/12/13 02:06:06;;;;;;;7.72;5.88;;;;;;;;;;5018472;28;20116;-67
2022/12/13 02:08:34;;;;;;;11.07;5.63;;;;;;;;;;5018536;28;20037;-68
2022/12/13 02:11:01;;;;;;;7.85;5.88;;;;;;;;;;5051082;28;20083;-67
2022/12/13 02:13:28;;;;;;;12.18;6.40;;;;;;;;;;5020985;28;20743;-69
2022/12/13 02:16:02;;;;;;;14.02;6.72;;;;;;;;;;5021356;28;20053;-68
2022/12/13 02:18:42;;;;;;;9.65;5.13;;;;;;;;;;5019359;28;20144;-68
2022/12/13 02:21:19;;;;;;;24.33;7.05;;;;;;;;;;5021081;28;20118;-68
2022/12/13 02:24:04;;;;;;;19.00;7.85;;;;;;;;;;5020589;28;20568;-68
2022/12/13 02:26:31;;;;;;;25.55;6.93;;;;;;;;;;5019394;28;20053;-68
2022/12/13 02:29:16;;;;;;;10.15;6.82;;;;;;;;;;5019817;28;20041;-67
2022/12/13 02:31:45;;;;;;;15.50;6.05;;;;;;;;;;5018533;28;20784;-66
2022/12/13 02:34:25;;;;;;;14.35;7.35;;;;;;;;;;5018767;28;20061;-67
2022/12/13 02:37:01;;;;;;;13.85;7.90;;;;;;;;;;5022577;28;20118;-68
2022/12/13 02:39:33;;;;;;;16.00;6.07;;;;;;;;;;5019451;28;20418;-67
2022/12/13 02:42:29;;;;;;;17.67;7.27;;;;;;;;;;5050368;28;20064;-68
2022/12/13 02:45:19;;;;;;;19.08;6.40;;;;;;;;;;4997992;28;22036;-68
2022/12/13 02:47:46;;;;;;;17.85;5.88;;;;;;;;;;5012402;28;20617;-68
2022/12/13 02:50:14;;;;;;;10.95;6.28;;;;;;;;;;5015215;28;20123;-68
2022/12/13 02:52:45;;;;;;;8.02;6.00;;;;;;;;;;5016422;28;20037;-69
2022/12/13 02:55:14;;;;;;;38.72;7.38;;;;;;;;;;5012709;28;20136;-67
2022/12/13 02:57:41;;;;;;;11.40;5.28;;;;;;;;;;5004333;28;20538;-67
2022/12/13 03:00:11;;;;;;;10.70;6.47;;;;;;;;;;4990388;28;20678;-67
2022/12/13 03:02:38;;;;;;;8.90;6.45;;;;;;;;;;5002222;28;20403;-68
2022/12/13 03:08:16;;;;;;;14.95;7.18;;;;;;;;;;5009916;28;20052;-67
2022/12/13 03:10:47;;;;;;;18.50;8.25;;;;;;;;;;5003835;28;20065;-67
2022/12/13 03:13:37;;;;;;;14.77;6.57;;;;;;;;;;5003190;28;20092;-67
2022/12/13 03:16:22;;;;;;;10.02;4.15;;;;;;;;;;4995871;28;20224;-67
2022/12/13 03:18:49;;;;;;;6.50;4.30;;;;;;;;;;4997900;28;20045;-67
2022/12/13 03:21:16;;;;;;;12.43;6.90;;;;;;;;;;4996778;28;20044;-67
2022/12/13 03:23:42;;;;;;;10.75;6.03;;;;;;;;;;5016772;28;20037;-68
2022/12/13 03:26:11;;;;;;;7.95;4.97;;;;;;;;;;5038700;28;20147;-67
2022/12/13 03:28:38;;;;;;;7.05;5.43;;;;;;;;;;5019548;28;20137;-67
2022/12/13 03:31:05;;;;;;;12.18;5.68;;;;;;;;;;5026908;28;20044;-68
2022/12/13 03:33:31;;;;;;;11.15;6.25;;;;;;;;;;5028570;28;20178;-66
2022/12/13 03:35:58;;;;;;;8.13;5.72;;;;;;;;;;5018501;28;20098;-68
2022/12/13 03:38:25;;;;;;;13.75;7.60;;;;;;;;;;5017590;28;20038;-67
2022/12/13 03:40:54;;;;;;;10.90;6.32;;;;;;;;;;5018061;28;20087;-67
2022/12/13 03:43:21;;;;;;;13.30;5.72;;;;;;;;;;5014161;28;20042;-68
2022/12/13 03:45:47;;;;;;;6.97;4.53;;;;;;;;;;5050087;28;20048;-66
2022/12/13 03:48:14;;;;;;;11.50;6.30;;;;;;;;;;5023926;28;20690;-65
2022/12/13 03:51:01;;;;;;;21.83;6.40;;;;;;;;;;5078142;28;20044;-66
2022/12/13 03:53:28;;;;;;;12.18;5.38;;;;;;;;;;5078033;28;20059;-67
2022/12/13 03:55:55;;;;;;;10.85;5.13;;;;;;;;;;5079188;28;20052;-66
2022/12/13 03:58:22;;;;;;;11.40;6.45;;;;;;;;;;5077518;28;20492;-68
2022/12/13 04:00:49;;;;;;;15.82;7.45;;;;;;;;;;5080324;28;20036;-67
2022/12/13 04:03:16;;;;;;;15.45;7.18;;;;;;;;;;5058375;28;20042;-67
2022/12/13 04:05:43;;;;;;;12.32;5.95;;;;;;;;;;5077101;28;20036;-67
2022/12/13 04:08:09;;;;;;;8.38;4.35;;;;;;;;;;5076759;28;20043;-68
2022/12/13 04:10:36;;;;;;;15.32;6.45;;;;;;;;;;5060590;28;20089;-67
2022/12/13 04:15:50;;;;;;;10.80;6.45;;;;;;;;;;5077569;28;20511;-67
2022/12/13 04:18:19;;;;;;;11.20;5.72;;;;;;;;;;5080194;28;20054;-67
2022/12/13 04:20:46;;;;;;;11.20;6.30;;;;;;;;;;5079862;28;20040;-67
2022/12/13 04:23:14;;;;;;;11.30;6.05;;;;;;;;;;5076410;28;21881;-68
2022/12/13 04:25:41;;;;;;;12.85;6.95;;;;;;;;;;5080995;28;20089;-69
2022/12/13 04:28:08;;;;;;;13.15;7.43;;;;;;;;;;5062228;28;20560;-69
2022/12/13 04:30:35;;;;;;;9.27;6.13;;;;;;;;;;5019148;28;20037;-66
2022/12/13 04:33:02;;;;;;;12.27;7.72;;;;;;;;;;5019718;28;20041;-68
2022/12/13 04:35:28;;;;;;;9.13;5.93;;;;;;;;;;5020503;28;20049;-68
2022/12/13 04:37:56;;;;;;;37.25;7.80;;;;;;;;;;5020042;28;20057;-69
2022/12/13 04:40:22;;;;;;;9.85;6.32;;;;;;;;;;5028115;28;20492;-68
2022/12/13 04:42:49;;;;;;;11.50;6.47;;;;;;;;;;5037796;28;20952;-67
2022/12/13 04:45:36;;;;;;;10.07;6.57;;;;;;;;;;5060348;28;20140;-67
2022/12/13 04:48:03;;;;;;;17.65;6.80;;;;;;;;;;5065567;28;20223;-68
2022/12/13 04:50:29;;;;;;;9.75;5.63;;;;;;;;;;5046759;28;20040;-67
2022/12/13 04:52:56;;;;;;;9.82;7.22;;;;;;;;;;5056154;28;20028;-68
2022/12/13 04:55:23;;;;;;;12.02;6.97;;;;;;;;;;5035113;28;20037;-69
2022/12/13 04:57:49;;;;;;;11.88;6.55;;;;;;;;;;5059116;28;20130;-68
2022/12/13 05:00:17;;;;;;;8.95;5.75;;;;;;;;;;5050779;28;20198;-69
2022/12/13 05:02:44;;;;;;;28.60;7.18;;;;;;;;;;5058849;28;20122;-67
2022/12/13 05:05:11;;;;;;;15.38;7.18;;;;;;;;;;5059809;28;20862;-68
2022/12/13 05:07:39;;;;;;;16.20;6.38;;;;;;;;;;5056035;28;20040;-69
2022/12/13 05:10:06;;;;;;;15.30;7.25;;;;;;;;;;5061205;28;20110;-68
2022/12/13 05:12:32;;;;;;;11.95;6.38;;;;;;;;;;5061417;28;20868;-68
2022/12/13 05:14:59;;;;;;;13.82;5.57;;;;;;;;;;5061966;28;20468;-68
2022/12/13 05:17:26;;;;;;;10.35;5.53;;;;;;;;;;5041695;28;20042;-67
2022/12/13 05:19:52;;;;;;;15.70;7.72;;;;;;;;;;5021014;28;20038;-67
2022/12/13 05:22:19;;;;;;;11.95;6.25;;;;;;;;;;5020237;28;20073;-68
2022/12/13 05:24:46;;;;;;;11.88;7.07;;;;;;;;;;5023037;28;20041;-68
2022/12/13 05:27:12;;;;;;;7.25;5.18;;;;;;;;;;5021088;28;20045;-67
2022/12/13 05:29:39;;;;;;;9.30;6.35;;;;;;;;;;5020382;28;20100;-67
2022/12/13 05:32:06;;;;;;;10.20;6.05;;;;;;;;;;5019382;28;20080;-66
2022/12/13 05:34:32;;;;;;;13.65;6.28;;;;;;;;;;5019825;28;20042;-67
2022/12/13 05:36:59;;;;;;;8.32;5.65;;;;;;;;;;5019061;28;20537;-68
2022/12/13 05:39:26;;;;;;;11.55;6.25;;;;;;;;;;5020335;28;20493;-68
2022/12/13 05:41:54;;;;;;;13.30;6.38;;;;;;;;;;5024711;28;20049;-67
2022/12/13 05:44:21;;;;;;;10.02;6.45;;;;;;;;;;5034531;28;20069;-68
2022/12/13 05:46:48;;;;;;;24.05;6.60;;;;;;;;;;5021516;28;20170;-67
2022/12/13 05:49:14;;;;;;;9.65;5.97;;;;;;;;;;5021982;28;20096;-66
2022/12/13 05:51:42;;;;;;;13.38;7.05;;;;;;;;;;5049376;28;20748;-67
2022/12/13 05:54:09;;;;;;;11.65;7.85;;;;;;;;;;5047065;28;20052;-68
2022/12/13 05:56:56;;;;;;;15.68;7.35;;;;;;;;;;5029892;28;20044;-67
2022/12/13 05:59:22;;;;;;;10.77;6.78;;;;;;;;;;5029616;28;20034;-67
2022/12/13 06:01:49;;;;;;;14.70;7.00;;;;;;;;;;5030758;28;20238;-68
2022/12/13 06:04:16;;;;;;;10.27;7.50;;;;;;;;;;5034680;28;20134;-67
2022/12/13 06:06:42;;;;;;;22.80;9.02;;;;;;;;;;5020747;28;20051;-66
2022/12/13 06:09:09;;;;;;;15.98;9.00;;;;;;;;;;5030386;28;21453;-67
2022/12/13 06:11:35;;;;;;;20.38;7.70;;;;;;;;;;5029493;28;20037;-67
2022/12/13 06:14:02;;;;;;;10.55;6.93;;;;;;;;;;5028021;28;20100;-68
2022/12/13 06:16:29;;;;;;;20.08;7.22;;;;;;;;;;5026909;28;20131;-68
2022/12/13 06:18:55;;;;;;;9.15;7.38;;;;;;;;;;5022336;28;20037;-67
2022/12/13 06:21:22;;;;;;;13.40;7.78;;;;;;;;;;5027111;28;20044;-67
2022/12/13 06:23:49;;;;;;;11.50;8.10;;;;;;;;;;5027770;28;20041;-68
2022/12/13 06:26:16;;;;;;;12.75;9.20;;;;;;;;;;5016807;28;20099;-67
2022/12/13 06:28:47;;;;;;;27.73;6.72;;;;;;;;;;5043154;28;20353;-67
2022/12/13 06:31:15;;;;;;;11.65;7.85;;;;;;;;;;5008104;28;20196;-67
2022/12/13 06:33:44;;;;;;;11.85;7.07;;;;;;;;;;5022734;28;20042;-67
2022/12/13 06:36:11;;;;;;;11.07;6.97;;;;;;;;;;5039129;28;20642;-68
2022/12/13 06:38:38;;;;;;;8.80;5.70;;;;;;;;;;5019639;28;20130;-68
2022/12/13 06:41:08;;;;;;;12.98;7.50;;;;;;;;;;5012184;28;20041;-68
2022/12/13 06:43:34;;;;;;;10.75;5.70;;;;;;;;;;5028488;28;20071;-67
2022/12/13 06:46:09;;;;;;;14.98;8.00;;;;;;;;;;5007552;28;20068;-67
2022/12/13 06:48:36;;;;;;;8.50;5.90;;;;;;;;;;5021683;28;20037;-66
2022/12/13 06:51:05;;;;;;;10.27;6.80;;;;;;;;;;5016480;28;20045;-68
2022/12/13 06:53:32;;;;;;;11.00;6.15;;;;;;;;;;5018550;28;20150;-67
2022/12/13 06:56:03;;;;;;;12.73;7.68;;;;;;;;;;5020079;28;20263;-67
2022/12/13 06:58:30;;;;;;;13.55;7.22;;;;;;;;;;5018985;28;20037;-67
2022/12/13 07:01:13;;;;;;;11.50;6.80;;;;;;;;;;5017641;28;20030;-67
2022/12/13 07:03:40;;;;;;;12.32;5.95;;;;;;;;;;5017465;28;20481;-66
2022/12/13 07:06:08;;;;;;;11.82;6.82;;;;;;;;;;5017985;28;20432;-67
2022/12/13 07:08:35;;;;;;;10.93;6.65;;;;;;;;;;5028076;28;20045;-66
2022/12/13 07:11:02;;;;;;;13.07;7.90;;;;;;;;;;5037908;28;20037;-66
2022/12/13 07:13:29;;;;;;;17.67;8.07;;;;;;;;;;5037386;28;20118;-67
2022/12/13 07:15:56;;;;;;;11.73;7.68;;;;;;;;;;5048392;28;20045;-69
2022/12/13 07:18:23;;;;;;;11.73;6.75;;;;;;;;;;5037665;28;20578;-69
2022/12/13 07:20:50;;;;;;;14.38;7.25;;;;;;;;;;5041956;28;20122;-67
2022/12/13 07:23:16;;;;;;;8.13;5.60;;;;;;;;;;5036274;28;20052;-66
2022/12/13 07:25:50;;;;;;;18.95;9.55;;;;;;;;;;5036785;28;20057;-66
2022/12/13 07:28:17;;;;;;;14.50;6.90;;;;;;;;;;5038627;28;20033;-67
2022/12/13 07:30:43;;;;;;;15.57;8.77;;;;;;;;;;5019387;28;20045;-66
2022/12/13 07:33:10;;;;;;;8.07;6.22;;;;;;;;;;5049242;28;20050;-65
2022/12/13 07:35:37;;;;;;;10.93;6.07;;;;;;;;;;5017839;28;20072;-66
2022/12/13 07:38:04;;;;;;;10.40;7.65;;;;;;;;;;5030058;28;20040;-65
2022/12/13 07:40:32;;;;;;;19.20;9.18;;;;;;;;;;5049501;28;20124;-66
2022/12/13 07:42:59;;;;;;;9.27;6.20;;;;;;;;;;5018673;28;20061;-65
2022/12/13 07:45:26;;;;;;;14.32;7.78;;;;;;;;;;5018398;28;20045;-66
2022/12/13 07:47:53;;;;;;;10.52;5.70;;;;;;;;;;5019472;28;20239;-68
2022/12/13 07:50:19;;;;;;;8.55;5.78;;;;;;;;;;5050975;28;20141;-67
2022/12/13 07:52:47;;;;;;;11.80;6.90;;;;;;;;;;5018610;28;20025;-66
2022/12/13 07:55:15;;;;;;;14.02;6.18;;;;;;;;;;5023528;28;20071;-66
2022/12/13 07:57:42;;;;;;;17.13;7.93;;;;;;;;;;5021722;28;20057;-66
2022/12/13 08:00:08;;;;;;;11.68;7.63;;;;;;;;;;5023032;28;20116;-66
2022/12/13 08:02:35;;;;;;;9.48;7.43;;;;;;;;;;5024707;28;20037;-67
2022/12/13 08:05:02;;;;;;;14.10;7.45;;;;;;;;;;5025885;28;20041;-67
2022/12/13 08:07:28;;;;;;;12.18;7.45;;;;;;;;;;5024219;28;20042;-67
2022/12/13 08:09:55;;;;;;;13.18;6.45;;;;;;;;;;5055943;28;20049;-66
2022/12/13 08:12:22;;;;;;;15.50;6.97;;;;;;;;;;5023186;28;20045;-67
2022/12/13 08:14:48;;;;;;;13.32;7.32;;;;;;;;;;5022103;28;20125;-66
2022/12/13 08:17:15;;;;;;;10.38;7.25;;;;;;;;;;5055937;28;20245;-67
2022/12/13 08:19:42;;;;;;;9.95;7.18;;;;;;;;;;5020181;28;20103;-66
2022/12/13 08:22:12;;;;;;;13.95;7.40;;;;;;;;;;5022116;28;20069;-66
2022/12/13 08:24:39;;;;;;;6.05;5.25;;;;;;;;;;5019809;28;20059;-67
2022/12/13 08:27:06;;;;;;;7.40;5.40;;;;;;;;;;5022080;28;20053;-67
2022/12/13 08:29:33;;;;;;;10.98;6.90;;;;;;;;;;5020183;28;20025;-67
2022/12/13 08:32:01;;;;;;;15.77;7.60;;;;;;;;;;5020713;28;20485;-67
2022/12/13 08:34:27;;;;;;;14.32;6.55;;;;;;;;;;5021173;28;20034;-67
2022/12/13 08:36:54;;;;;;;9.90;5.05;;;;;;;;;;5020567;28;20148;-67
2022/12/13 08:39:21;;;;;;;22.88;7.72;;;;;;;;;;5031914;28;20079;-67
2022/12/13 08:41:47;;;;;;;11.68;6.75;;;;;;;;;;5020894;28;20099;-67
2022/12/13 08:44:14;;;;;;;16.50;7.40;;;;;;;;;;5019313;28;20061;-68
2022/12/13 08:46:40;;;;;;;13.57;6.55;;;;;;;;;;5035996;28;20088;-67
2022/12/13 08:49:07;;;;;;;8.10;5.30;;;;;;;;;;5020848;28;20848;-68
2022/12/13 08:51:34;;;;;;;8.65;6.38;;;;;;;;;;5020692;28;20068;-65
2022/12/13 08:54:00;;;;;;;23.10;7.03;;;;;;;;;;5019274;28;20049;-67
2022/12/13 08:56:27;;;;;;;9.60;5.85;;;;;;;;;;5020989;28;20159;-67
2022/12/13 08:58:54;;;;;;;13.23;6.53;;;;;;;;;;5019407;28;20077;-68
2022/12/13 09:01:20;;;;;;;11.10;6.55;;;;;;;;;;5019713;28;20132;-67
2022/12/13 09:03:47;;;;;;;16.55;6.47;;;;;;;;;;5018164;28;20033;-68
2022/12/13 09:06:15;;;;;;;8.75;6.18;;;;;;;;;;5020434;28;20049;-68
2022/12/13 09:08:44;;;;;;;7.85;5.30;;;;;;;;;;5019072;28;20140;-67
2022/12/13 09:11:11;;;;;;;11.23;6.80;;;;;;;;;;5019060;28;20068;-67
2022/12/13 09:13:39;;;;;;;13.85;6.75;;;;;;;;;;5018768;28;20564;-67
2022/12/13 09:16:08;;;;;;;9.95;5.88;;;;;;;;;;5020086;28;20048;-67
2022/12/13 09:18:34;;;;;;;12.35;5.72;;;;;;;;;;5019462;28;20045;-67
2022/12/13 09:21:06;;;;;;;14.73;8.23;;;;;;;;;;5021208;28;20037;-68
2022/12/13 09:23:33;;;;;;;6.75;4.70;;;;;;;;;;5012403;28;20033;-67
2022/12/13 09:26:00;;;;;;;10.38;6.40;;;;;;;;;;5047612;28;20052;-67
2022/12/13 09:28:28;;;;;;;14.18;7.20;;;;;;;;;;5021482;28;20508;-67
2022/12/13 09:30:55;;;;;;;8.15;5.30;;;;;;;;;;5021305;28;20478;-67
2022/12/13 09:33:22;;;;;;;11.10;6.40;;;;;;;;;;5049889;28;20045;-67
2022/12/13 09:35:49;;;;;;;10.15;5.80;;;;;;;;;;5020369;28;20092;-66
2022/12/13 09:38:16;;;;;;;10.10;6.72;;;;;;;;;;5020595;28;20486;-68
2022/12/13 09:40:45;;;;;;;12.15;7.22;;;;;;;;;;5018493;28;20103;-66
2022/12/13 09:43:23;;;;;;;8.90;5.63;;;;;;;;;;5018428;28;20037;-67
2022/12/13 09:45:50;;;;;;;8.40;5.45;;;;;;;;;;5020906;28;20221;-67
2022/12/13 09:48:19;;;;;;;22.73;6.95;;;;;;;;;;5019916;28;20414;-67
2022/12/13 09:50:46;;;;;;;8.73;4.57;;;;;;;;;;5022013;28;20116;-67
2022/12/13 09:53:14;;;;;;;9.65;6.07;;;;;;;;;;5019561;28;20037;-66
2022/12/13 09:55:51;;;;;;;8.52;5.45;;;;;;;;;;5019306;28;20355;-66
2022/12/13 09:58:23;;;;;;;16.20;6.28;;;;;;;;;;5019212;28;20048;-67
2022/12/13 10:00:51;;;;;;;19.98;7.85;;;;;;;;;;5040419;28;20060;-67
2022/12/13 10:03:18;;;;;;;19.85;6.47;;;;;;;;;;5021174;28;20052;-67
2022/12/13 10:05:51;;;;;;;11.00;6.50;;;;;;;;;;5017478;28;20051;-66
2022/12/13 10:08:23;;;;;;;12.55;5.95;;;;;;;;;;5044434;28;20038;-67
2022/12/13 10:10:51;;;;;;;16.48;6.75;;;;;;;;;;5028965;28;20041;-67
2022/12/13 10:13:20;;;;;;;11.40;6.75;;;;;;;;;;5019140;28;20430;-67
2022/12/13 10:16:02;;;;;;;11.88;6.75;;;;;;;;;;5018151;28;20049;-66
2022/12/13 10:18:36;;;;;;;12.18;7.10;;;;;;;;;;5018594;28;20041;-66
2022/12/13 10:21:04;;;;;;;9.30;6.53;;;;;;;;;;5018494;28;20068;-66
2022/12/13 10:23:32;;;;;;;11.73;6.18;;;;;;;;;;5033560;28;20041;-66
2022/12/13 10:25:59;;;;;;;14.60;6.88;;;;;;;;;;5018829;28;20049;-66
2022/12/13 10:28:36;;;;;;;8.10;5.72;;;;;;;;;;5017220;28;20049;-67
2022/12/13 10:31:03;;;;;;;11.55;5.80;;;;;;;;;;5018717;28;20180;-66
2022/12/13 10:33:33;;;;;;;11.35;5.95;;;;;;;;;;5020681;28;20032;-66
2022/12/13 10:36:06;;;;;;;13.10;5.45;;;;;;;;;;5056776;28;20060;-66
2022/12/13 10:38:37;;;;;;;22.65;5.90;;;;;;;;;;5021154;28;20042;-66
2022/12/13 10:41:24;;;;;;;10.65;5.25;;;;;;;;;;5018163;28;20034;-66
2022/12/13 10:44:07;;;;;;;11.05;3.95;;;;;;;;;;5018958;28;20075;-67
2022/12/13 10:46:34;;;;;;;6.70;4.38;;;;;;;;;;5017614;28;20095;-66
2022/12/13 10:49:00;;;;;;;16.40;5.60;;;;;;;;;;5014820;28;20134;-66
2022/12/13 10:51:27;;;;;;;6.35;4.13;;;;;;;;;;5018973;28;20069;-66
2022/12/13 10:53:59;;;;;;;7.53;4.22;;;;;;;;;;5017280;28;20045;-66
2022/12/13 10:56:34;;;;;;;6.97;5.03;;;;;;;;;;5015931;28;20647;-67
2022/12/13 10:59:19;;;;;;;11.90;6.03;;;;;;;;;;5017149;28;20486;-67
2022/12/13 11:01:46;;;;;;;4.45;3.13;;;;;;;;;;5026599;28;20038;-67
2022/12/13 11:04:30;;;;;;;9.10;4.68;;;;;;;;;;5017860;28;20050;-66
2022/12/13 11:06:58;;;;;;;6.20;3.97;;;;;;;;;;5026217;28;20075;-65
2022/12/13 11:09:29;;;;;;;8.68;3.88;;;;;;;;;;5018896;28;20420;-67
2022/12/13 11:11:57;;;;;;;5.88;3.55;;;;;;;;;;5017481;28;20037;-67
2022/12/13 11:14:26;;;;;;;7.82;4.15;;;;;;;;;;5017403;28;20049;-66
2022/12/13 11:16:56;;;;;;;5.72;3.45;;;;;;;;;;5017912;28;20050;-68
2022/12/13 11:19:42;;;;;;;8.18;5.05;;;;;;;;;;5017865;28;20040;-67
2022/12/13 11:22:10;;;;;;;13.32;4.75;;;;;;;;;;5012933;28;20510;-66
2022/12/13 11:24:37;;;;;;;9.15;4.60;;;;;;;;;;5017540;28;20041;-66
2022/12/13 11:27:19;;;;;;;7.95;3.88;;;;;;;;;;5019055;28;20055;-66
2022/12/13 11:29:46;;;;;;;8.35;4.15;;;;;;;;;;5021749;28;20066;-68
2022/12/13 11:32:26;;;;;;;5.75;2.95;;;;;;;;;;5021202;28;20037;-67
2022/12/13 11:35:31;;;;;;;12.32;4.53;;;;;;;;;;5021605;28;20080;-68
2022/12/13 11:37:58;;;;;;;4.55;3.03;;;;;;;;;;4978534;28;20041;-68
2022/12/13 11:40:46;;;;;;;8.57;5.28;;;;;;;;;;4999433;28;20096;-67
2022/12/13 11:43:20;;;;;;;6.97;3.33;;;;;;;;;;5024466;28;20036;-67
2022/12/13 11:45:49;;;;;;;5.72;3.78;;;;;;;;;;5021504;28;20059;-67
2022/12/13 11:48:19;;;;;;;6.07;3.30;;;;;;;;;;5023154;28;20041;-66
2022/12/13 11:50:54;;;;;;;6.38;4.03;;;;;;;;;;5023755;28;20041;-66
2022/12/13 11:53:20;;;;;;;5.07;2.78;;;;;;;;;;5020441;28;20592;-68
2022/12/13 11:56:12;;;;;;;5.13;3.13;;;;;;;;;;5021638;28;20029;-68
2022/12/13 11:58:42;;;;;;;4.45;2.97;;;;;;;;;;5024608;28;20044;-67
2022/12/13 12:01:11;;;;;;;7.00;3.35;;;;;;;;;;5038847;28;20052;-67
2022/12/13 12:03:59;;;;;;;5.25;3.35;;;;;;;;;;5031961;28;20072;-68
2022/12/13 12:06:39;;;;;;;14.85;4.15;;;;;;;;;;5022658;28;20025;-68
2022/12/13 12:09:07;;;;;;;11.13;4.20;;;;;;;;;;5049682;28;20762;-68
2022/12/13 12:11:39;;;;;;;8.07;4.55;;;;;;;;;;5021335;28;20049;-67
2022/12/13 12:14:12;;;;;;;12.23;5.37;;;;;;;;;;5052095;28;20540;-68
2022/12/13 12:16:41;;;;;;;10.10;4.75;;;;;;;;;;5035594;28;20073;-66
2022/12/13 12:19:15;;;;;;;7.82;3.58;;;;;;;;;;5029576;28;20351;-67
2022/12/13 12:21:51;;;;;;;8.80;5.00;;;;;;;;;;5045429;28;20515;-67
2022/12/13 12:24:28;;;;;;;4.80;2.88;;;;;;;;;;5043118;28;20342;-67
2022/12/13 12:27:13;;;;;;;7.05;3.80;;;;;;;;;;5044252;28;20586;-68
2022/12/13 12:29:43;;;;;;;9.63;3.78;;;;;;;;;;5028414;28;20060;-68
2022/12/13 12:32:10;;;;;;;7.45;4.05;;;;;;;;;;5035657;28;20057;-67
2022/12/13 12:34:44;;;;;;;8.30;3.58;;;;;;;;;;5020061;28;20145;-67
2022/12/13 12:37:23;;;;;;;5.47;3.58;;;;;;;;;;5052154;28;20145;-68
2022/12/13 12:39:56;;;;;;;6.47;3.53;;;;;;;;;;5032505;28;20037;-67
2022/12/13 12:42:35;;;;;;;10.20;4.97;;;;;;;;;;5055080;28;20034;-67
2022/12/13 12:45:14;;;;;;;11.43;3.50;;;;;;;;;;5026038;28;20048;-66
2022/12/13 12:47:43;;;;;;;8.35;4.32;;;;;;;;;;5026176;28;20138;-68
2022/12/13 12:50:15;;;;;;;5.70;3.03;;;;;;;;;;5052755;28;20238;-67
2022/12/13 12:52:42;;;;;;;10.32;3.13;;;;;;;;;;5021378;28;20576;-67
2022/12/13 12:55:18;;;;;;;4.82;3.08;;;;;;;;;;5024266;28;20113;-67
2022/12/13 12:57:54;;;;;;;5.68;3.08;;;;;;;;;;5028021;28;20083;-66
2022/12/13 13:00:22;;;;;;;5.15;2.30;;;;;;;;;;5026743;28;20049;-67
2022/12/13 13:02:54;;;;;;;5.93;3.85;;;;;;;;;;5026332;28;20129;-67
2022/12/13 13:05:33;;;;;;;13.80;3.95;;;;;;;;;;5030141;28;20549;-67
2022/12/13 13:08:11;;;;;;;4.53;3.22;;;;;;;;;;5030800;28;21731;-67
2022/12/13 13:10:39;;;;;;;8.93;3.90;;;;;;;;;;5026052;28;20060;-66
2022/12/13 13:13:06;;;;;;;5.50;3.33;;;;;;;;;;5029495;28;20489;-67
2022/12/13 13:15:32;;;;;;;8.30;4.07;;;;;;;;;;5032304;28;20097;-66
2022/12/13 13:18:00;;;;;;;5.97;3.72;;;;;;;;;;5031232;28;20045;-67
2022/12/13 13:20:27;;;;;;;8.43;4.57;;;;;;;;;;5049455;28;20060;-69
2022/12/13 13:22:58;;;;;;;8.68;4.07;;;;;;;;;;5043266;28;20147;-67
2022/12/13 13:25:24;;;;;;;4.07;2.50;;;;;;;;;;5049394;28;20053;-69
2022/12/13 13:27:52;;;;;;;3.55;2.45;;;;;;;;;;5049414;28;20049;-67
2022/12/13 13:30:19;;;;;;;7.32;3.10;;;;;;;;;;5052765;28;20170;-67
2022/12/13 13:32:46;;;;;;;5.47;2.13;;;;;;;;;;5035682;28;20107;-67
2022/12/13 13:35:28;;;;;;;6.45;2.90;;;;;;;;;;5034639;28;20100;-67
2022/12/13 13:37:54;;;;;;;4.72;2.55;;;;;;;;;;5032670;28;20053;-67
2022/12/13 13:40:41;;;;;;;13.70;3.08;;;;;;;;;;5082819;28;20584;-67
2022/12/13 13:43:15;;;;;;;4.25;2.60;;;;;;;;;;5078634;28;20066;-67
2022/12/13 13:46:20;;;;;;;5.07;3.15;;;;;;;;;;5059649;28;20396;-67
2022/12/13 13:48:47;;;;;;;4.43;2.67;;;;;;;;;;5001858;28;20041;-66
2022/12/13 13:51:32;;;;;;;5.80;3.03;;;;;;;;;;5007547;28;20038;-69
2022/12/13 13:54:13;;;;;;;3.45;2.33;;;;;;;;;;5060846;28;20570;-66
2022/12/13 13:56:58;;;;;;;2.30;1.55;;;;;;;;;;5088907;28;20200;-68
2022/12/13 13:59:55;;;;;;;4.70;1.88;;;;;;;;;;5059157;28;20067;-65
2022/12/13 14:02:22;;;;;;;9.30;4.35;;;;;;;;;;5055813;28;20051;-66
2022/12/13 14:05:09;;;;;;;12.48;3.17;;;;;;;;;;5058850;28;20047;-66
2022/12/13 14:07:44;;;;;;;7.47;2.92;;;;;;;;;;5052279;28;20105;-68
2022/12/13 14:10:20;;;;;;;5.07;2.85;;;;;;;;;;5052533;28;20037;-66
2022/12/13 14:12:53;;;;;;;5.68;3.13;;;;;;;;;;5059321;28;20060;-66
2022/12/13 14:15:37;;;;;;;4.80;3.25;;;;;;;;;;5072033;28;20499;-66
2022/12/13 14:18:24;;;;;;;4.63;3.08;;;;;;;;;;5059833;28;20565;-66
2022/12/13 14:20:54;;;;;;;5.90;2.05;;;;;;;;;;5022530;28;20123;-67
2022/12/13 14:23:20;;;;;;;15.90;3.08;;;;;;;;;;5024508;28;20433;-66
2022/12/13 14:25:53;;;;;;;4.68;3.25;;;;;;;;;;5033762;28;20143;-66
2022/12/13 14:28:37;;;;;;;5.70;3.58;;;;;;;;;;5044159;28;20041;-67
2022/12/13 14:31:04;;;;;;;4.72;2.92;;;;;;;;;;5035822;28;20107;-67
2022/12/13 14:33:31;;;;;;;5.82;3.10;;;;;;;;;;5021358;28;20037;-67
2022/12/13 14:35:59;;;;;;;5.30;3.05;;;;;;;;;;5021483;28;20049;-67
2022/12/13 14:38:27;;;;;;;11.63;2.45;;;;;;;;;;5026676;28;21437;-67
2022/12/13 14:40:56;;;;;;;5.13;2.72;;;;;;;;;;5028711;28;20068;-66
2022/12/13 14:43:30;;;;;;;9.65;3.63;;;;;;;;;;5025192;28;20041;-67
2022/12/13 14:45:56;;;;;;;;;;;;;;;;;;5026206;28;20106;-67
2022/12/13 14:48:23;;;;;;;5.00;2.75;;;;;;;;;;5023704;28;20429;-68
2022/12/13 14:50:53;;;;;;;4.63;2.70;;;;;;;;;;5056764;28;20152;-67
2022/12/13 14:53:25;;;;;;;4.88;3.05;;;;;;;;;;5023705;28;20049;-67
2022/12/13 14:56:14;;;;;;;4.45;2.25;;;;;;;;;;5023904;28;20068;-66
2022/12/13 14:58:52;;;;;;;6.55;2.10;;;;;;;;;;5025671;28;20041;-66